sensor_id;sensor_type;location;lat;lon;timestamp;pressure;altitude;pressure_sealevel;temperature;humidity
37068;BME280;22982;42.848;25.468;2022-07-10T00:04:53;95953.72;;;16.26;100.00
37068;BME280;22982;42.848;25.468;2022-07-10T00:09:55;95956.50;;;16.15;100.00
37068;BME280;22982;42.848;25.468;2022-07-10T00:14:58;95943.09;;;16.07;100.00
37068;BME280;22982;42.848;25.468;2022-07-10T00:20:02;95943.63;;;16.01;100.00
37068;BME280;22982;42.848;25.468;2022-07-10T00:25:06;95950.91;;;16.18;100.00
37068;BME280;22982;42.848;25.468;2022-07-10T00:30:10;95954.31;;;16.40;100.00
37068;BME280;22982;42.848;25.468;2022-07-10T00:35:12;95943.75;;;16.59;100.00
37068;BME280;22982;42.848;25.468;2022-07-10T00:40:14;95947.75;;;16.44;100.00
37068;BME280;22982;42.848;25.468;2022-07-10T00:45:17;95942.31;;;16.36;100.00
37068;BME280;22982;42.848;25.468;2022-07-10T00:50:19;95943.41;;;16.33;100.00
37068;BME280;22982;42.848;25.468;2022-07-10T00:55:22;95934.22;;;16.27;100.00
37068;BME280;22982;42.848;25.468;2022-07-10T01:00:25;95930.09;;;16.54;100.00
37068;BME280;22982;42.848;25.468;2022-07-10T01:05:28;95922.81;;;16.37;100.00
37068;BME280;22982;42.848;25.468;2022-07-10T01:10:31;95934.91;;;16.30;100.00
37068;BME280;22982;42.848;25.468;2022-07-10T01:15:33;95923.13;;;16.53;100.00
37068;BME280;22982;42.848;25.468;2022-07-10T01:20:38;95926.47;;;16.75;100.00
37068;BME280;22982;42.848;25.468;2022-07-10T01:25:40;95912.28;;;16.76;100.00
37068;BME280;22982;42.848;25.468;2022-07-10T01:30:42;95926.47;;;16.55;100.00
37068;BME280;22982;42.848;25.468;2022-07-10T01:35:44;95917.53;;;16.56;100.00
37068;BME280;22982;42.848;25.468;2022-07-10T01:40:47;95911.19;;;16.88;100.00
37068;BME280;22982;42.848;25.468;2022-07-10T01:45:49;95917.56;;;16.66;100.00
37068;BME280;22982;42.848;25.468;2022-07-10T01:50:51;95905.59;;;16.72;100.00
37068;BME280;22982;42.848;25.468;2022-07-10T01:55:53;95906.13;;;16.56;100.00
37068;BME280;22982;42.848;25.468;2022-07-10T02:00:56;95897.91;;;16.39;100.00
37068;BME280;22982;42.848;25.468;2022-07-10T02:05:59;95893.72;;;16.56;100.00
37068;BME280;22982;42.848;25.468;2022-07-10T02:11:01;95891.78;;;16.58;100.00
37068;BME280;22982;42.848;25.468;2022-07-10T02:16:04;95888.56;;;16.45;100.00
37068;BME280;22982;42.848;25.468;2022-07-10T02:21:07;95890.81;;;16.59;100.00
37068;BME280;22982;42.848;25.468;2022-07-10T02:26:09;95887.19;;;16.41;100.00
37068;BME280;22982;42.848;25.468;2022-07-10T02:31:11;95907.81;;;16.67;100.00
37068;BME280;22982;42.848;25.468;2022-07-10T02:36:13;95896.91;;;16.31;100.00
37068;BME280;22982;42.848;25.468;2022-07-10T02:41:15;95892.13;;;16.05;100.00
37068;BME280;22982;42.848;25.468;2022-07-10T02:46:18;95880.63;;;16.35;100.00
37068;BME280;22982;42.848;25.468;2022-07-10T02:51:20;95879.94;;;16.43;100.00
37068;BME280;22982;42.848;25.468;2022-07-10T02:56:22;95885.53;;;16.50;100.00
37068;BME280;22982;42.848;25.468;2022-07-10T03:01:25;95884.38;;;16.33;100.00
37068;BME280;22982;42.848;25.468;2022-07-10T03:06:27;95893.56;;;16.29;100.00
37068;BME280;22982;42.848;25.468;2022-07-10T03:11:30;95892.75;;;16.28;100.00
37068;BME280;22982;42.848;25.468;2022-07-10T03:16:32;95888.84;;;16.22;100.00
37068;BME280;22982;42.848;25.468;2022-07-10T03:21:35;95891.50;;;16.42;100.00
37068;BME280;22982;42.848;25.468;2022-07-10T03:26:37;95887.63;;;16.46;100.00
37068;BME280;22982;42.848;25.468;2022-07-10T03:31:40;95888.22;;;15.99;100.00
37068;BME280;22982;42.848;25.468;2022-07-10T03:36:42;95889.25;;;16.27;100.00
37068;BME280;22982;42.848;25.468;2022-07-10T03:41:44;95883.50;;;16.13;100.00
37068;BME280;22982;42.848;25.468;2022-07-10T03:46:47;95890.38;;;16.35;100.00
37068;BME280;22982;42.848;25.468;2022-07-10T03:51:49;95894.03;;;16.63;100.00
37068;BME280;22982;42.848;25.468;2022-07-10T03:56:51;95889.13;;;16.78;100.00
37068;BME280;22982;42.848;25.468;2022-07-10T04:02:12;95895.53;;;16.36;100.00
37068;BME280;22982;42.848;25.468;2022-07-10T04:07:14;95876.00;;;16.27;100.00
37068;BME280;22982;42.848;25.468;2022-07-10T04:12:18;95871.47;;;16.88;100.00
37068;BME280;22982;42.848;25.468;2022-07-10T04:17:20;95869.34;;;17.01;100.00
37068;BME280;22982;42.848;25.468;2022-07-10T04:22:23;95864.03;;;17.11;100.00
37068;BME280;22982;42.848;25.468;2022-07-10T04:27:25;95874.34;;;17.14;100.00
37068;BME280;22982;42.848;25.468;2022-07-10T04:32:27;95884.03;;;17.43;100.00
37068;BME280;22982;42.848;25.468;2022-07-10T04:37:30;95870.66;;;17.72;100.00
37068;BME280;22982;42.848;25.468;2022-07-10T04:42:32;95876.84;;;18.01;100.00
37068;BME280;22982;42.848;25.468;2022-07-10T04:47:34;95893.72;;;18.27;100.00
37068;BME280;22982;42.848;25.468;2022-07-10T04:52:37;95891.38;;;18.78;97.33
37068;BME280;22982;42.848;25.468;2022-07-10T04:57:39;95890.97;;;18.83;96.30
37068;BME280;22982;42.848;25.468;2022-07-10T05:02:44;95893.81;;;19.07;93.89
37068;BME280;22982;42.848;25.468;2022-07-10T05:07:47;95888.81;;;19.04;95.36
37068;BME280;22982;42.848;25.468;2022-07-10T05:12:49;95890.97;;;19.27;93.29
37068;BME280;22982;42.848;25.468;2022-07-10T05:17:51;95898.16;;;19.61;92.16
37068;BME280;22982;42.848;25.468;2022-07-10T05:22:55;95895.53;;;19.69;91.67
37068;BME280;22982;42.848;25.468;2022-07-10T05:27:57;95893.78;;;19.78;89.96
37068;BME280;22982;42.848;25.468;2022-07-10T05:32:59;95891.59;;;20.16;87.22
37068;BME280;22982;42.848;25.468;2022-07-10T05:38:02;95875.13;;;20.12;86.28
37068;BME280;22982;42.848;25.468;2022-07-10T05:43:04;95887.97;;;20.25;87.58
37068;BME280;22982;42.848;25.468;2022-07-10T05:48:06;95892.56;;;19.98;89.62
37068;BME280;22982;42.848;25.468;2022-07-10T05:53:08;95883.78;;;20.98;85.25
37068;BME280;22982;42.848;25.468;2022-07-10T05:58:11;95891.09;;;21.29;82.82
37068;BME280;22982;42.848;25.468;2022-07-10T06:03:14;95880.97;;;21.16;81.93
37068;BME280;22982;42.848;25.468;2022-07-10T06:08:17;95894.28;;;20.91;83.87
37068;BME280;22982;42.848;25.468;2022-07-10T06:13:31;95897.09;;;21.06;83.05
37068;BME280;22982;42.848;25.468;2022-07-10T06:19:16;95870.78;;;20.78;84.09
37068;BME280;22982;42.848;25.468;2022-07-10T06:24:20;95897.53;;;21.75;79.71
37068;BME280;22982;42.848;25.468;2022-07-10T06:29:22;95876.50;;;22.28;76.69
37068;BME280;22982;42.848;25.468;2022-07-10T06:34:30;95875.50;;;22.21;74.89
37068;BME280;22982;42.848;25.468;2022-07-10T06:39:33;95888.06;;;22.04;75.56
37068;BME280;22982;42.848;25.468;2022-07-10T06:44:36;95901.72;;;21.70;77.52
37068;BME280;22982;42.848;25.468;2022-07-10T06:49:40;95891.06;;;21.37;79.09
37068;BME280;22982;42.848;25.468;2022-07-10T06:54:52;95892.88;;;21.77;76.27
37068;BME280;22982;42.848;25.468;2022-07-10T06:59:55;95898.94;;;21.47;76.99
37068;BME280;22982;42.848;25.468;2022-07-10T07:04:57;95902.03;;;21.75;76.27
37068;BME280;22982;42.848;25.468;2022-07-10T07:09:59;95890.41;;;21.59;76.48
37068;BME280;22982;42.848;25.468;2022-07-10T07:15:02;95899.91;;;21.70;77.42
37068;BME280;22982;42.848;25.468;2022-07-10T07:20:04;95904.84;;;21.82;76.66
37068;BME280;22982;42.848;25.468;2022-07-10T07:25:25;95890.31;;;21.92;77.34
37068;BME280;22982;42.848;25.468;2022-07-10T07:30:28;95902.50;;;21.87;76.02
37068;BME280;22982;42.848;25.468;2022-07-10T07:35:30;95903.09;;;21.41;79.66
37068;BME280;22982;42.848;25.468;2022-07-10T07:40:33;95912.56;;;21.35;81.32
37068;BME280;22982;42.848;25.468;2022-07-10T07:45:35;95902.25;;;21.40;80.33
37068;BME280;22982;42.848;25.468;2022-07-10T07:50:37;95893.28;;;21.97;78.54
37068;BME280;22982;42.848;25.468;2022-07-10T07:55:40;95887.88;;;22.14;78.00
37068;BME280;22982;42.848;25.468;2022-07-10T08:01:01;95880.34;;;22.17;77.10
37068;BME280;22982;42.848;25.468;2022-07-10T08:06:04;95893.25;;;22.45;74.84
37068;BME280;22982;42.848;25.468;2022-07-10T08:11:07;95892.44;;;24.56;65.82
37068;BME280;22982;42.848;25.468;2022-07-10T08:16:10;95883.38;;;25.22;62.76
37068;BME280;22982;42.848;25.468;2022-07-10T08:21:12;95885.75;;;24.67;63.85
37068;BME280;22982;42.848;25.468;2022-07-10T08:26:14;95882.53;;;25.21;61.80
37068;BME280;22982;42.848;25.468;2022-07-10T08:31:16;95878.94;;;25.57;57.82
37068;BME280;22982;42.848;25.468;2022-07-10T08:36:19;95878.31;;;24.33;63.57
37068;BME280;22982;42.848;25.468;2022-07-10T08:41:42;95887.09;;;24.41;64.00
37068;BME280;22982;42.848;25.468;2022-07-10T08:46:47;95900.16;;;23.32;66.70
37068;BME280;22982;42.848;25.468;2022-07-10T08:57:10;95874.94;;;23.79;65.36
37068;BME280;22982;42.848;25.468;2022-07-10T09:02:15;95891.22;;;24.44;65.19
37068;BME280;22982;42.848;25.468;2022-07-10T09:07:18;95896.56;;;24.74;64.26
37068;BME280;22982;42.848;25.468;2022-07-10T09:12:22;95896.94;;;23.89;66.60
37068;BME280;22982;42.848;25.468;2022-07-10T09:17:24;95888.78;;;24.27;61.03
37068;BME280;22982;42.848;25.468;2022-07-10T09:22:30;95900.69;;;24.40;61.39
37068;BME280;22982;42.848;25.468;2022-07-10T09:27:51;95915.59;;;24.13;62.28
37068;BME280;22982;42.848;25.468;2022-07-10T09:33:14;95899.19;;;23.63;63.58
37068;BME280;22982;42.848;25.468;2022-07-10T09:38:19;95877.41;;;24.25;61.95
37068;BME280;22982;42.848;25.468;2022-07-10T09:43:22;95875.09;;;24.74;61.36
37068;BME280;22982;42.848;25.468;2022-07-10T09:48:24;95892.41;;;25.64;56.15
37068;BME280;22982;42.848;25.468;2022-07-10T09:53:29;95883.03;;;25.53;56.73
37068;BME280;22982;42.848;25.468;2022-07-10T09:58:33;95880.72;;;24.79;58.97
37068;BME280;22982;42.848;25.468;2022-07-10T10:03:39;95896.06;;;25.28;56.59
37068;BME280;22982;42.848;25.468;2022-07-10T10:08:51;95877.91;;;24.51;57.48
37068;BME280;22982;42.848;25.468;2022-07-10T10:13:58;95876.25;;;24.50;61.24
37068;BME280;22982;42.848;25.468;2022-07-10T10:19:02;95886.06;;;24.57;59.01
37068;BME280;22982;42.848;25.468;2022-07-10T10:24:25;95879.34;;;24.32;58.49
37068;BME280;22982;42.848;25.468;2022-07-10T10:29:28;95875.22;;;23.99;59.80
37068;BME280;22982;42.848;25.468;2022-07-10T10:34:45;95879.34;;;24.32;62.87
37068;BME280;22982;42.848;25.468;2022-07-10T10:39:51;95879.38;;;24.68;59.38
37068;BME280;22982;42.848;25.468;2022-07-10T10:50:53;95866.28;;;25.01;58.45
37068;BME280;22982;42.848;25.468;2022-07-10T11:01:05;95843.97;;;25.51;55.50
37068;BME280;22982;42.848;25.468;2022-07-10T11:06:07;95848.41;;;25.65;54.85
37068;BME280;22982;42.848;25.468;2022-07-10T11:16:33;95834.81;;;26.08;51.35
37068;BME280;22982;42.848;25.468;2022-07-10T11:21:46;95844.91;;;25.65;53.47
37068;BME280;22982;42.848;25.468;2022-07-10T11:26:59;95820.16;;;26.72;49.08
37068;BME280;22982;42.848;25.468;2022-07-10T11:32:04;95834.81;;;25.38;53.40
37068;BME280;22982;42.848;25.468;2022-07-10T11:37:15;95826.38;;;25.20;54.10
37068;BME280;22982;42.848;25.468;2022-07-10T11:42:18;95816.47;;;24.13;57.26
37068;BME280;22982;42.848;25.468;2022-07-10T11:47:20;95800.75;;;24.61;57.83
37068;BME280;22982;42.848;25.468;2022-07-10T11:52:23;95804.56;;;25.51;54.09
37068;BME280;22982;42.848;25.468;2022-07-10T11:57:25;95789.50;;;28.19;45.04
37068;BME280;22982;42.848;25.468;2022-07-10T12:02:29;95769.13;;;29.18;42.91
37068;BME280;22982;42.848;25.468;2022-07-10T12:07:31;95754.53;;;30.49;39.77
37068;BME280;22982;42.848;25.468;2022-07-10T12:12:33;95779.34;;;29.16;42.47
37068;BME280;22982;42.848;25.468;2022-07-10T12:17:35;95781.38;;;28.64;42.92
37068;BME280;22982;42.848;25.468;2022-07-10T12:22:38;95756.00;;;28.01;43.68
37068;BME280;22982;42.848;25.468;2022-07-10T12:27:43;95769.59;;;27.61;44.94
37068;BME280;22982;42.848;25.468;2022-07-10T12:32:52;95759.72;;;26.62;48.50
37068;BME280;22982;42.848;25.468;2022-07-10T12:37:54;95769.84;;;26.66;48.67
37068;BME280;22982;42.848;25.468;2022-07-10T12:43:03;95766.16;;;26.74;48.68
37068;BME280;22982;42.848;25.468;2022-07-10T12:48:06;95747.81;;;26.16;49.45
37068;BME280;22982;42.848;25.468;2022-07-10T12:53:09;95738.09;;;26.08;50.60
37068;BME280;22982;42.848;25.468;2022-07-10T12:58:13;95757.19;;;25.85;55.42
37068;BME280;22982;42.848;25.468;2022-07-10T13:03:19;95746.22;;;26.48;48.97
37068;BME280;22982;42.848;25.468;2022-07-10T13:08:24;95759.72;;;26.75;49.51
37068;BME280;22982;42.848;25.468;2022-07-10T13:13:27;95771.41;;;25.72;54.36
37068;BME280;22982;42.848;25.468;2022-07-10T13:18:30;95807.63;;;24.92;60.53
37068;BME280;22982;42.848;25.468;2022-07-10T13:23:33;95816.69;;;23.37;61.86
37068;BME280;22982;42.848;25.468;2022-07-10T13:28:35;95831.13;;;22.51;67.13
37068;BME280;22982;42.848;25.468;2022-07-10T13:33:38;95803.16;;;21.12;76.52
37068;BME280;22982;42.848;25.468;2022-07-10T13:38:40;95817.13;;;20.49;89.71
37068;BME280;22982;42.848;25.468;2022-07-10T13:43:44;95824.31;;;19.81;90.96
37068;BME280;22982;42.848;25.468;2022-07-10T13:48:46;95824.53;;;19.61;93.67
37068;BME280;22982;42.848;25.468;2022-07-10T13:53:48;95810.06;;;19.98;89.36
37068;BME280;22982;42.848;25.468;2022-07-10T13:58:52;95808.31;;;20.56;86.47
37068;BME280;22982;42.848;25.468;2022-07-10T14:03:54;95796.19;;;20.70;83.89
37068;BME280;22982;42.848;25.468;2022-07-10T14:08:56;95805.50;;;20.82;82.36
37068;BME280;22982;42.848;25.468;2022-07-10T14:13:58;95806.63;;;20.22;87.12
37068;BME280;22982;42.848;25.468;2022-07-10T14:19:01;95814.13;;;18.89;100.00
37068;BME280;22982;42.848;25.468;2022-07-10T14:24:10;95803.09;;;18.40;100.00
37068;BME280;22982;42.848;25.468;2022-07-10T14:29:12;95797.16;;;19.08;100.00
37068;BME280;22982;42.848;25.468;2022-07-10T14:34:15;95789.56;;;19.82;96.19
37068;BME280;22982;42.848;25.468;2022-07-10T14:39:18;95778.97;;;20.15;95.29
37068;BME280;22982;42.848;25.468;2022-07-10T14:44:55;95759.19;;;20.26;94.83
37068;BME280;22982;42.848;25.468;2022-07-10T14:49:57;95751.38;;;20.41;95.39
37068;BME280;22982;42.848;25.468;2022-07-10T14:54:59;95773.38;;;20.68;100.00
37068;BME280;22982;42.848;25.468;2022-07-10T15:00:04;95756.53;;;20.92;100.00
37068;BME280;22982;42.848;25.468;2022-07-10T15:05:09;95744.88;;;20.93;100.00
37068;BME280;22982;42.848;25.468;2022-07-10T15:10:11;95743.31;;;21.15;98.11
37068;BME280;22982;42.848;25.468;2022-07-10T15:15:23;95739.09;;;20.64;100.00
37068;BME280;22982;42.848;25.468;2022-07-10T15:20:26;95755.38;;;20.86;100.00
37068;BME280;22982;42.848;25.468;2022-07-10T15:25:28;95756.22;;;20.78;100.00
37068;BME280;22982;42.848;25.468;2022-07-10T15:30:30;95756.00;;;21.13;100.00
37068;BME280;22982;42.848;25.468;2022-07-10T15:35:33;95753.19;;;20.98;99.02
37068;BME280;22982;42.848;25.468;2022-07-10T15:40:35;95753.44;;;21.28;97.27
37068;BME280;22982;42.848;25.468;2022-07-10T15:45:37;95767.16;;;21.08;98.85
37068;BME280;22982;42.848;25.468;2022-07-10T15:50:40;95752.72;;;20.70;99.61
37068;BME280;22982;42.848;25.468;2022-07-10T15:55:42;95769.19;;;20.65;98.96
37068;BME280;22982;42.848;25.468;2022-07-10T16:00:45;95786.00;;;20.90;96.93
37068;BME280;22982;42.848;25.468;2022-07-10T16:05:47;95765.88;;;20.96;97.01
37068;BME280;22982;42.848;25.468;2022-07-10T16:10:49;95774.22;;;20.68;100.00
37068;BME280;22982;42.848;25.468;2022-07-10T16:15:53;95774.69;;;20.72;100.00
37068;BME280;22982;42.848;25.468;2022-07-10T16:20:56;95794.69;;;20.68;100.00
37068;BME280;22982;42.848;25.468;2022-07-10T16:25:58;95785.84;;;20.59;100.00
37068;BME280;22982;42.848;25.468;2022-07-10T16:31:03;95798.47;;;20.32;100.00
37068;BME280;22982;42.848;25.468;2022-07-10T16:36:05;95784.91;;;19.93;100.00
37068;BME280;22982;42.848;25.468;2022-07-10T16:41:08;95802.03;;;19.90;100.00
37068;BME280;22982;42.848;25.468;2022-07-10T16:46:24;95802.00;;;19.82;100.00
37068;BME280;22982;42.848;25.468;2022-07-10T16:51:28;95800.06;;;19.92;100.00
37068;BME280;22982;42.848;25.468;2022-07-10T16:56:30;95797.78;;;19.71;100.00
37068;BME280;22982;42.848;25.468;2022-07-10T17:01:32;95804.06;;;19.62;100.00
37068;BME280;22982;42.848;25.468;2022-07-10T17:06:35;95822.06;;;19.68;100.00
37068;BME280;22982;42.848;25.468;2022-07-10T17:11:37;95820.81;;;19.54;100.00
37068;BME280;22982;42.848;25.468;2022-07-10T17:16:40;95829.84;;;19.61;100.00
37068;BME280;22982;42.848;25.468;2022-07-10T17:21:42;95842.31;;;19.35;100.00
37068;BME280;22982;42.848;25.468;2022-07-10T17:27:01;95851.44;;;19.06;100.00
37068;BME280;22982;42.848;25.468;2022-07-10T17:32:03;95861.94;;;18.89;100.00
37068;BME280;22982;42.848;25.468;2022-07-10T17:37:06;95869.88;;;19.07;100.00
37068;BME280;22982;42.848;25.468;2022-07-10T17:42:08;95864.47;;;18.91;100.00
37068;BME280;22982;42.848;25.468;2022-07-10T17:47:10;95877.50;;;18.84;100.00
37068;BME280;22982;42.848;25.468;2022-07-10T17:52:13;95879.19;;;18.85;100.00
37068;BME280;22982;42.848;25.468;2022-07-10T17:57:15;95888.13;;;18.84;100.00
37068;BME280;22982;42.848;25.468;2022-07-10T18:02:17;95882.97;;;18.65;100.00
37068;BME280;22982;42.848;25.468;2022-07-10T18:07:19;95893.59;;;18.47;100.00
37068;BME280;22982;42.848;25.468;2022-07-10T18:12:22;95890.78;;;18.03;100.00
37068;BME280;22982;42.848;25.468;2022-07-10T18:17:25;95899.19;;;17.98;100.00
37068;BME280;22982;42.848;25.468;2022-07-10T18:22:27;95908.41;;;17.94;100.00
37068;BME280;22982;42.848;25.468;2022-07-10T18:27:29;95900.78;;;17.91;100.00
37068;BME280;22982;42.848;25.468;2022-07-10T18:32:31;95911.50;;;17.79;100.00
37068;BME280;22982;42.848;25.468;2022-07-10T18:37:52;95916.81;;;17.79;100.00
37068;BME280;22982;42.848;25.468;2022-07-10T18:42:54;95922.69;;;18.39;100.00
37068;BME280;22982;42.848;25.468;2022-07-10T18:47:57;95930.72;;;18.01;100.00
37068;BME280;22982;42.848;25.468;2022-07-10T18:53:00;95933.03;;;17.86;100.00
37068;BME280;22982;42.848;25.468;2022-07-10T18:58:02;95941.97;;;17.85;100.00
37068;BME280;22982;42.848;25.468;2022-07-10T19:03:09;95961.69;;;18.10;100.00
37068;BME280;22982;42.848;25.468;2022-07-10T19:08:23;95964.50;;;17.99;100.00
37068;BME280;22982;42.848;25.468;2022-07-10T19:13:25;95971.97;;;17.86;100.00
37068;BME280;22982;42.848;25.468;2022-07-10T19:18:28;95975.69;;;17.83;100.00
37068;BME280;22982;42.848;25.468;2022-07-10T19:23:30;95979.09;;;18.50;100.00
37068;BME280;22982;42.848;25.468;2022-07-10T19:28:33;95978.75;;;18.53;92.03
37068;BME280;22982;42.848;25.468;2022-07-10T19:33:35;95972.56;;;18.90;92.37
37068;BME280;22982;42.848;25.468;2022-07-10T19:38:54;95955.06;;;18.88;88.06
37068;BME280;22982;42.848;25.468;2022-07-10T19:43:57;95989.94;;;19.03;83.52
37068;BME280;22982;42.848;25.468;2022-07-10T19:48:59;96006.09;;;19.27;83.41
37068;BME280;22982;42.848;25.468;2022-07-10T19:54:02;95999.69;;;19.38;81.92
37068;BME280;22982;42.848;25.468;2022-07-10T19:59:04;95999.28;;;19.07;83.27
37068;BME280;22982;42.848;25.468;2022-07-10T20:04:06;96001.25;;;18.87;78.61
37068;BME280;22982;42.848;25.468;2022-07-10T20:09:08;96022.72;;;18.93;78.82
37068;BME280;22982;42.848;25.468;2022-07-10T20:14:11;96017.09;;;18.97;76.83
37068;BME280;22982;42.848;25.468;2022-07-10T20:19:20;96009.59;;;18.92;76.42
37068;BME280;22982;42.848;25.468;2022-07-10T20:24:23;96009.22;;;19.05;75.13
37068;BME280;22982;42.848;25.468;2022-07-10T20:29:25;96005.19;;;19.19;73.42
37068;BME280;22982;42.848;25.468;2022-07-10T20:34:27;96007.38;;;19.23;73.45
37068;BME280;22982;42.848;25.468;2022-07-10T20:39:29;96014.06;;;19.27;72.21
37068;BME280;22982;42.848;25.468;2022-07-10T20:44:32;96009.47;;;19.11;72.54
37068;BME280;22982;42.848;25.468;2022-07-10T20:49:34;96023.56;;;19.12;76.03
37068;BME280;22982;42.848;25.468;2022-07-10T20:54:36;96008.25;;;18.78;72.21
37068;BME280;22982;42.848;25.468;2022-07-10T20:59:38;96004.28;;;18.92;71.30
37068;BME280;22982;42.848;25.468;2022-07-10T21:04:45;96007.09;;;18.81;74.41
37068;BME280;22982;42.848;25.468;2022-07-10T21:09:48;96012.41;;;18.90;76.59
37068;BME280;22982;42.848;25.468;2022-07-10T21:14:51;96002.34;;;18.84;79.05
37068;BME280;22982;42.848;25.468;2022-07-10T21:19:54;96018.34;;;18.74;79.00
37068;BME280;22982;42.848;25.468;2022-07-10T21:24:57;96024.78;;;18.44;77.60
37068;BME280;22982;42.848;25.468;2022-07-10T21:29:59;96027.84;;;18.22;77.91
37068;BME280;22982;42.848;25.468;2022-07-10T21:35:01;96033.06;;;18.41;74.03
37068;BME280;22982;42.848;25.468;2022-07-10T21:40:04;96036.41;;;18.43;76.13
37068;BME280;22982;42.848;25.468;2022-07-10T21:45:06;96019.34;;;18.18;72.97
37068;BME280;22982;42.848;25.468;2022-07-10T21:50:09;96019.72;;;18.23;73.99
37068;BME280;22982;42.848;25.468;2022-07-10T21:55:12;96024.16;;;17.95;81.35
37068;BME280;22982;42.848;25.468;2022-07-10T22:00:14;96012.47;;;17.68;84.95
37068;BME280;22982;42.848;25.468;2022-07-10T22:05:17;96014.97;;;16.82;87.49
37068;BME280;22982;42.848;25.468;2022-07-10T22:10:19;96030.97;;;16.71;88.95
37068;BME280;22982;42.848;25.468;2022-07-10T22:15:23;96021.84;;;16.44;87.66
37068;BME280;22982;42.848;25.468;2022-07-10T22:20:26;96020.94;;;16.64;91.49
37068;BME280;22982;42.848;25.468;2022-07-10T22:25:28;96021.59;;;16.47;93.50
37068;BME280;22982;42.848;25.468;2022-07-10T22:30:31;96046.31;;;15.96;92.43
37068;BME280;22982;42.848;25.468;2022-07-10T22:35:51;96029.84;;;15.71;96.57
37068;BME280;22982;42.848;25.468;2022-07-10T22:40:54;96034.69;;;15.66;95.68
37068;BME280;22982;42.848;25.468;2022-07-10T22:45:56;96030.13;;;15.47;96.94
37068;BME280;22982;42.848;25.468;2022-07-10T22:50:58;96036.38;;;15.67;96.34
37068;BME280;22982;42.848;25.468;2022-07-10T22:56:01;96021.75;;;15.63;94.88
37068;BME280;22982;42.848;25.468;2022-07-10T23:01:04;96034.44;;;15.69;97.14
37068;BME280;22982;42.848;25.468;2022-07-10T23:06:08;96027.22;;;15.71;96.55
37068;BME280;22982;42.848;25.468;2022-07-10T23:11:11;96034.38;;;15.80;96.75
37068;BME280;22982;42.848;25.468;2022-07-10T23:16:13;96051.50;;;15.76;96.13
37068;BME280;22982;42.848;25.468;2022-07-10T23:21:16;96041.91;;;15.64;97.43
37068;BME280;22982;42.848;25.468;2022-07-10T23:26:18;96041.28;;;15.50;95.94
37068;BME280;22982;42.848;25.468;2022-07-10T23:31:21;96039.00;;;15.46;96.38
37068;BME280;22982;42.848;25.468;2022-07-10T23:36:23;96039.09;;;15.56;96.38
37068;BME280;22982;42.848;25.468;2022-07-10T23:41:25;96040.50;;;15.39;98.31
37068;BME280;22982;42.848;25.468;2022-07-10T23:46:27;96041.19;;;15.41;95.80
37068;BME280;22982;42.848;25.468;2022-07-10T23:51:30;96043.84;;;15.62;92.33
37068;BME280;22982;42.848;25.468;2022-07-10T23:56:32;96031.03;;;15.99;86.84
